Time;durP1;ratioP1;P1;durP2;ratioP2;P2;SDS_P1;SDS_P2;PMS_P1;PMS_P2;Temp;Humidity;BMP_temperature;BMP_pressure;BME280_temperature;BME280_humidity;BME280_pressure;Samples;Min_cycle;Max_cycle;Signal;HPM_P1;HPM_P2
2022/10/20 00:00:16;;;;;;;13.23;6.87;;;;;;;18.81;45.80;101770.91;5089117;28;20077;-72
2022/10/20 00:02:41;;;;;;;11.60;6.57;;;;;;;18.35;46.32;101773.06;5086803;28;20024;-71
2022/10/20 00:05:07;;;;;;;13.67;6.20;;;;;;;18.47;45.97;101780.66;5089616;28;20040;-72
2022/10/20 00:07:32;;;;;;;11.33;5.90;;;;;;;18.58;46.22;101790.09;5087856;28;20092;-71
2022/10/20 00:09:57;;;;;;;14.53;6.37;;;;;;;19.02;45.19;101782.66;5089563;28;20039;-71
2022/10/20 00:12:23;;;;;;;9.77;6.33;;;;;;;18.19;46.94;101787.63;5088136;28;20020;-71
2022/10/20 00:14:48;;;;;;;12.50;6.63;;;;;;;18.65;46.56;101770.47;5088836;28;20028;-71
2022/10/20 00:17:14;;;;;;;13.77;6.30;;;;;;;17.84;47.93;101765.59;5088118;28;20059;-71
2022/10/20 00:19:39;;;;;;;13.30;6.83;;;;;;;18.13;47.73;101762.22;5090126;28;20032;-71
2022/10/20 00:22:05;;;;;;;10.97;6.60;;;;;;;18.30;46.45;101761.78;5090417;28;20028;-71
2022/10/20 00:24:30;;;;;;;15.33;6.30;;;;;;;18.31;47.44;101758.19;5087752;28;20430;-72
2022/10/20 00:26:55;;;;;;;10.60;6.30;;;;;;;18.54;46.34;101761.97;5087408;28;20032;-71
2022/10/20 00:29:21;;;;;;;10.50;6.97;;;;;;;18.19;47.83;101755.88;5087232;28;20023;-71
2022/10/20 00:31:46;;;;;;;10.80;7.63;;;;;;;18.34;47.22;101744.91;5087131;28;20402;-71
2022/10/20 00:34:12;;;;;;;11.63;6.90;;;;;;;18.34;46.85;101747.53;5085436;28;20617;-72
2022/10/20 00:36:38;;;;;;;13.93;7.07;;;;;;;18.62;46.47;101738.81;5090923;28;20067;-72
2022/10/20 00:39:05;;;;;;;13.07;6.87;;;;;;;18.34;46.81;101738.72;5084477;28;20027;-72
2022/10/20 00:41:31;;;;;;;19.27;8.30;;;;;;;18.25;47.28;101739.84;5088446;28;20067;-72
2022/10/20 00:44:36;;;;;;;10.77;7.17;;;;;;;18.07;47.81;101736.78;5089168;28;20032;-72
2022/10/20 00:47:01;;;;;;;13.00;7.67;;;;;;;18.19;47.05;101729.41;5064084;28;20036;-72
2022/10/20 00:49:27;;;;;;;16.67;8.00;;;;;;;18.64;46.59;101735.19;5090190;28;20387;-72
2022/10/20 00:51:53;;;;;;;13.20;7.50;;;;;;;18.02;47.81;101738.69;5089439;28;20031;-72
2022/10/20 00:54:26;;;;;;;15.27;7.83;;;;;;;18.38;47.47;101728.03;5091782;28;20031;-72
2022/10/20 00:56:53;;;;;;;12.00;7.57;;;;;;;18.36;47.12;101716.59;5088274;28;20534;-72
2022/10/20 00:59:25;;;;;;;15.90;7.67;;;;;;;18.34;47.33;101723.72;5092988;28;20028;-72
2022/10/20 01:01:50;;;;;;;10.13;7.17;;;;;;;18.20;47.46;101715.28;5090643;28;20494;-73
2022/10/20 01:04:17;;;;;;;16.23;8.03;;;;;;;17.84;48.49;101712.72;5092485;28;20024;-72
2022/10/20 01:06:42;;;;;;;15.57;8.73;;;;;;;18.65;46.70;101728.13;5087065;28;20039;-72
2022/10/20 01:09:08;;;;;;;11.73;7.97;;;;;;;18.35;46.48;101719.28;5108097;28;20027;-72
2022/10/20 01:11:42;;;;;;;21.07;8.27;;;;;;;18.36;46.57;101708.66;5098904;28;20021;-72
2022/10/20 01:14:31;;;;;;;11.33;7.90;;;;;;;18.55;47.44;101716.06;5091166;28;20032;-72
2022/10/20 01:17:24;;;;;;;12.93;8.33;;;;;;;18.52;46.39;101700.25;5100198;27;20067;-72
2022/10/20 01:20:08;;;;;;;;;;;;;;;18.89;45.36;101688.56;5091625;28;20039;-72
2022/10/20 01:22:55;;;;;;;12.27;7.50;;;;;;;18.24;47.04;101685.19;5085230;28;19912;-73
2022/10/20 01:25:29;;;;;;;15.73;8.00;;;;;;;18.25;47.14;101685.13;5092420;28;20035;-72
2022/10/20 01:28:00;;;;;;;15.73;8.23;;;;;;;18.74;46.53;101664.28;5090451;28;20051;-73
2022/10/20 01:30:25;;;;;;;13.07;7.73;;;;;;;18.51;46.99;101656.19;5076927;28;20036;-73
2022/10/20 01:33:09;;;;;;;14.53;7.90;;;;;;;18.65;46.73;101670.72;5089964;28;20383;-72
2022/10/20 01:36:10;;;;;;;14.97;8.10;;;;;;;18.23;47.50;101670.22;5091462;28;20343;-72
2022/10/20 01:39:06;;;;;;;16.87;8.47;;;;;;;18.16;47.99;101666.03;5081752;28;20174;-72
2022/10/20 01:41:42;;;;;;;12.33;8.23;;;;;;;19.21;45.53;101646.94;5082868;28;20067;-72
2022/10/20 01:44:11;;;;;;;18.30;8.77;;;;;;;18.40;46.70;101654.72;5091937;28;20507;-73
2022/10/20 01:46:40;;;;;;;13.47;8.37;;;;;;;18.56;47.11;101649.84;5092691;28;20059;-72
2022/10/20 01:49:06;;;;;;;16.30;9.27;;;;;;;18.81;45.74;101664.97;5090649;28;20116;-73
2022/10/20 01:51:32;;;;;;;15.07;8.53;;;;;;;18.50;46.91;101643.88;5089289;28;20016;-73
2022/10/20 01:53:58;;;;;;;16.67;8.83;;;;;;;17.71;47.96;101649.59;5090910;28;20472;-72
2022/10/20 01:56:34;;;;;;;17.87;8.10;;;;;;;18.39;47.31;101623.88;5090249;28;20040;-72
2022/10/20 01:59:16;;;;;;;12.37;8.20;;;;;;;18.26;48.12;101619.88;5091030;28;20071;-72
2022/10/20 02:02:01;;;;;;;14.45;8.18;;;;;;;17.97;47.79;101614.50;5092004;28;20036;-72
2022/10/20 02:04:54;;;;;;;19.10;8.47;;;;;;;18.35;47.43;101613.44;5090769;28;20032;-72
2022/10/20 02:07:27;;;;;;;13.27;8.55;;;;;;;18.08;48.03;101606.28;5089796;28;20069;-72
2022/10/20 02:10:04;;;;;;;20.80;8.37;;;;;;;18.06;47.91;101610.72;5088317;28;20465;-73
2022/10/20 02:12:36;;;;;;;16.90;8.27;;;;;;;18.23;47.37;101598.78;5088905;27;20085;-72
2022/10/20 02:15:03;;;;;;;16.83;8.68;;;;;;;18.14;47.10;101599.94;5083603;28;20024;-72
2022/10/20 02:17:29;;;;;;;14.07;8.73;;;;;;;18.21;47.32;101587.38;5090715;28;20078;-72
2022/10/20 02:19:55;;;;;;;15.57;8.93;;;;;;;18.25;47.31;101591.69;5091178;28;20020;-73
2022/10/20 02:22:21;;;;;;;12.90;8.33;;;;;;;17.75;48.11;101593.06;5090301;28;20031;-73
2022/10/20 02:24:47;;;;;;;16.47;8.93;;;;;;;18.36;46.89;101584.28;5091718;28;20416;-72
2022/10/20 02:27:21;;;;;;;20.97;10.40;;;;;;;18.06;46.94;101571.03;5089387;28;20058;-72
2022/10/20 02:29:58;;;;;;;16.57;8.73;;;;;;;18.46;47.30;101569.84;5091234;28;20047;-73
2022/10/20 02:32:24;;;;;;;15.63;9.20;;;;;;;18.45;47.03;101556.63;5091908;28;20357;-73
2022/10/20 02:34:50;;;;;;;17.90;9.27;;;;;;;17.28;49.78;101555.56;5091767;28;20106;-72
2022/10/20 02:37:15;;;;;;;15.67;9.23;;;;;;;17.80;49.00;101542.69;5088985;28;20181;-72
2022/10/20 02:39:41;;;;;;;19.30;9.67;;;;;;;17.44;48.63;101541.03;5093604;28;20024;-72
2022/10/20 02:42:06;;;;;;;18.70;9.90;;;;;;;17.64;48.72;101534.34;5091325;28;20425;-72
2022/10/20 02:44:32;;;;;;;18.63;9.30;;;;;;;18.38;47.45;101532.19;5088846;28;20412;-72
2022/10/20 02:46:57;;;;;;;14.30;9.40;;;;;;;17.93;49.08;101530.03;5090906;28;20024;-72
2022/10/20 02:49:24;;;;;;;16.93;10.23;;;;;;;17.95;48.15;101525.53;5087218;28;20158;-72
2022/10/20 02:51:50;;;;;;;17.30;10.37;;;;;;;17.36;50.13;101527.16;5087432;28;20032;-72
2022/10/20 02:54:15;;;;;;;16.90;10.20;;;;;;;18.01;48.51;101516.56;5099875;27;20029;-72
2022/10/20 02:56:41;;;;;;;17.33;10.07;;;;;;;18.02;48.98;101511.22;5107271;28;20055;-72
2022/10/20 02:59:15;;;;;;;16.13;10.00;;;;;;;18.34;47.80;101505.84;5089904;28;20405;-73
2022/10/20 03:01:41;;;;;;;16.23;10.20;;;;;;;18.01;49.00;101508.63;5090582;28;20032;-72
2022/10/20 03:04:07;;;;;;;19.57;10.70;;;;;;;18.03;48.74;101502.38;5091374;28;20024;-72
2022/10/20 03:06:32;;;;;;;18.63;10.40;;;;;;;18.47;47.45;101505.38;5089051;28;20024;-72
2022/10/20 03:08:58;;;;;;;14.50;10.50;;;;;;;18.50;47.22;101498.28;5089729;28;20031;-72
2022/10/20 03:11:23;;;;;;;16.57;10.20;;;;;;;18.22;48.30;101489.44;5090648;28;20036;-72
2022/10/20 03:13:48;;;;;;;20.17;10.63;;;;;;;17.51;50.22;101498.59;5090165;28;20538;-72
2022/10/20 03:16:14;;;;;;;19.33;11.70;;;;;;;18.57;48.01;101492.72;5087457;28;20055;-73
2022/10/20 03:18:39;;;;;;;17.90;10.70;;;;;;;18.14;48.86;101479.09;5088798;28;20039;-72
2022/10/20 03:21:05;;;;;;;22.00;11.73;;;;;;;17.83;50.01;101473.00;5088417;28;20027;-72
2022/10/20 03:23:30;;;;;;;18.30;10.93;;;;;;;17.98;49.26;101467.25;5089825;28;20032;-72
2022/10/20 03:26:04;;;;;;;19.50;11.70;;;;;;;17.71;50.40;101459.22;5086038;28;20048;-72
2022/10/20 03:28:30;;;;;;;21.90;11.90;;;;;;;18.11;49.20;101458.03;5086478;28;20034;-72
2022/10/20 03:30:55;;;;;;;22.60;11.70;;;;;;;18.03;48.76;101454.75;5088891;28;20027;-72
2022/10/20 03:33:21;;;;;;;20.73;13.10;;;;;;;18.05;49.11;101447.66;5088410;28;20028;-73
2022/10/20 03:35:46;;;;;;;17.70;11.13;;;;;;;17.88;49.56;101447.28;5087968;28;20035;-72
2022/10/20 03:38:12;;;;;;;22.80;12.40;;;;;;;18.04;49.24;101456.50;5086155;28;20024;-72
2022/10/20 03:40:37;;;;;;;18.80;12.13;;;;;;;18.56;48.31;101466.28;5085828;28;20537;-72
2022/10/20 03:43:02;;;;;;;22.90;12.43;;;;;;;18.66;48.38;101459.78;5090387;28;20024;-72
2022/10/20 03:45:28;;;;;;;19.93;11.70;;;;;;;18.93;47.59;101457.13;5091973;28;20058;-72
2022/10/20 03:47:53;;;;;;;21.10;12.10;;;;;;;18.67;48.21;101445.66;5083591;28;20376;-72
2022/10/20 03:50:19;;;;;;;27.67;12.57;;;;;;;18.48;48.33;101440.09;5089246;28;20028;-72
2022/10/20 03:52:47;;;;;;;19.03;11.73;;;;;;;18.82;48.42;101429.22;5096665;28;20494;-72
2022/10/20 03:55:12;;;;;;;23.33;12.83;;;;;;;18.68;48.18;101431.47;5088993;28;20097;-72
2022/10/20 03:57:37;;;;;;;23.63;12.70;;;;;;;18.48;48.82;101426.88;5075049;28;20059;-72
2022/10/20 04:00:03;;;;;;;22.37;12.87;;;;;;;18.75;48.53;101433.00;5077734;28;20103;-73
2022/10/20 04:02:42;;;;;;;21.00;12.70;;;;;;;18.65;48.41;101444.81;5088858;28;20490;-72
2022/10/20 04:05:09;;;;;;;20.97;12.17;;;;;;;19.18;47.04;101445.66;5091732;28;20077;-72
2022/10/20 04:07:35;;;;;;;25.30;13.83;;;;;;;19.15;46.94;101444.84;5089988;28;20158;-72
2022/10/20 04:10:03;;;;;;;23.50;13.70;;;;;;;18.77;48.06;101449.69;5089799;28;20107;-72
2022/10/20 04:12:29;;;;;;;21.30;12.60;;;;;;;19.46;46.77;101435.75;5089779;28;20464;-72
2022/10/20 04:14:54;;;;;;;24.47;12.40;;;;;;;19.73;46.04;101440.94;5088768;28;20124;-72
2022/10/20 04:17:20;;;;;;;25.97;14.03;;;;;;;19.20;47.43;101434.06;5089874;28;20028;-72
2022/10/20 04:19:45;;;;;;;23.13;13.70;;;;;;;19.15;47.20;101436.91;5089922;28;20401;-72
2022/10/20 04:22:11;;;;;;;24.17;12.87;;;;;;;19.45;46.99;101431.41;5085726;28;20035;-72
2022/10/20 04:24:36;;;;;;;21.47;12.77;;;;;;;19.54;46.83;101430.16;5105235;28;20027;-73
2022/10/20 04:27:02;;;;;;;27.03;13.87;;;;;;;19.44;46.40;101429.66;5088361;28;20038;-72
2022/10/20 04:29:27;;;;;;;23.80;13.20;;;;;;;19.36;47.41;101423.78;5092782;28;20388;-72
2022/10/20 04:31:53;;;;;;;25.47;12.93;;;;;;;19.22;47.19;101420.75;5091886;28;20024;-73
2022/10/20 04:34:18;;;;;;;21.10;13.60;;;;;;;19.45;47.30;101418.16;5092609;28;20081;-73
2022/10/20 04:36:44;;;;;;;27.70;13.57;;;;;;;19.70;46.98;101411.91;5089656;28;20031;-73
2022/10/20 04:39:09;;;;;;;26.30;13.33;;;;;;;19.04;48.05;101415.25;5085147;28;20577;-72
2022/10/20 04:41:34;;;;;;;24.40;13.70;;;;;;;19.45;47.06;101412.84;5092995;28;20032;-72
2022/10/20 04:44:00;;;;;;;23.20;14.23;;;;;;;19.60;47.42;101415.81;5094915;28;20038;-73
2022/10/20 04:46:25;;;;;;;26.93;13.57;;;;;;;19.30;47.46;101394.84;5089698;28;20047;-72
2022/10/20 04:48:51;;;;;;;22.13;13.67;;;;;;;18.77;49.46;101399.38;5092309;28;20034;-72
2022/10/20 04:51:17;;;;;;;27.63;15.23;;;;;;;19.61;47.63;101407.78;5089505;28;20060;-72
2022/10/20 04:53:42;;;;;;;23.90;13.80;;;;;;;19.89;46.52;101400.56;5091572;28;20031;-72
2022/10/20 04:56:11;;;;;;;26.90;13.80;;;;;;;19.46;47.71;101403.94;5089304;28;20124;-73
2022/10/20 04:58:36;;;;;;;30.40;13.83;;;;;;;19.42;47.05;101404.13;5092653;28;20039;-72
2022/10/20 05:01:05;;;;;;;25.03;14.23;;;;;;;19.42;47.90;101401.47;5092756;28;20019;-72
2022/10/20 05:03:31;;;;;;;25.47;14.20;;;;;;;18.83;49.60;101398.28;5092115;28;20024;-72
2022/10/20 05:06:11;;;;;;;25.80;13.60;;;;;;;18.70;49.01;101371.41;5091452;28;20024;-72
2022/10/20 05:08:38;;;;;;;29.03;14.30;;;;;;;19.04;49.31;101361.38;5091537;28;20039;-72
2022/10/20 05:11:03;;;;;;;26.00;13.40;;;;;;;19.48;47.96;101348.22;5092891;28;20479;-73
2022/10/20 05:13:29;;;;;;;22.10;13.97;;;;;;;19.41;47.64;101342.31;5093278;28;20081;-72
2022/10/20 05:15:54;;;;;;;24.60;14.03;;;;;;;19.10;48.39;101353.22;5087732;28;20020;-72
2022/10/20 05:18:19;;;;;;;31.30;14.07;;;;;;;19.43;47.74;101351.06;5091165;28;20531;-72
2022/10/20 05:20:45;;;;;;;26.17;13.70;;;;;;;19.86;47.07;101363.56;5088207;28;20058;-72
2022/10/20 05:23:10;;;;;;;23.67;13.90;;;;;;;19.99;46.42;101367.44;5092602;28;20024;-72
2022/10/20 05:25:37;;;;;;;22.83;13.97;;;;;;;19.82;47.35;101350.44;5093270;28;20020;-73
2022/10/20 05:28:02;;;;;;;25.87;13.63;;;;;;;19.86;46.73;101337.03;5088768;28;21324;-72
2022/10/20 05:30:28;;;;;;;21.77;13.57;;;;;;;19.35;47.83;101345.19;5089077;28;20289;-71
2022/10/20 05:32:53;;;;;;;20.43;13.47;;;;;;;19.59;47.50;101350.44;5092745;28;20043;-72
2022/10/20 05:35:19;;;;;;;26.73;13.40;;;;;;;19.59;48.05;101323.94;5102963;27;20067;-71
2022/10/20 05:37:44;;;;;;;25.83;12.77;;;;;;;19.74;46.72;101333.06;5099468;28;20062;-72
2022/10/20 05:40:10;;;;;;;21.50;13.97;;;;;;;19.22;48.81;101328.91;5090734;28;20411;-72
2022/10/20 05:42:35;;;;;;;21.50;13.67;;;;;;;19.70;47.30;101311.13;5095885;28;20114;-72
2022/10/20 05:45:00;;;;;;;22.30;12.57;;;;;;;19.38;47.31;101307.09;5092968;28;20099;-72
2022/10/20 05:47:26;;;;;;;20.87;12.33;;;;;;;19.99;46.59;101311.75;5091194;28;20024;-72
2022/10/20 05:49:51;;;;;;;27.47;13.70;;;;;;;19.84;47.35;101318.53;5092851;28;20136;-72
2022/10/20 05:52:17;;;;;;;25.17;14.00;;;;;;;19.66;47.42;101320.13;5090879;28;20016;-72
2022/10/20 05:54:42;;;;;;;19.03;11.90;;;;;;;20.19;46.17;101304.72;5097628;28;20391;-72
2022/10/20 05:57:08;;;;;;;27.60;12.87;;;;;;;19.33;47.73;101315.25;5080802;28;20484;-71
2022/10/20 05:59:33;;;;;;;24.77;13.53;;;;;;;19.65;46.74;101313.94;5092741;28;20523;-71
2022/10/20 06:01:58;;;;;;;29.47;13.30;;;;;;;19.78;47.18;101327.59;5089870;28;20285;-72
2022/10/20 06:04:24;;;;;;;24.00;13.53;;;;;;;19.65;46.63;101331.66;5092195;28;20016;-71
2022/10/20 06:06:50;;;;;;;19.60;12.33;;;;;;;18.69;49.66;101311.41;5093850;28;20478;-71
2022/10/20 06:09:16;;;;;;;20.67;13.03;;;;;;;19.30;48.56;101318.00;5090734;28;20388;-72
2022/10/20 06:11:42;;;;;;;23.03;13.47;;;;;;;19.27;48.74;101307.53;5093602;28;20020;-72
2022/10/20 06:14:08;;;;;;;23.63;13.90;;;;;;;18.85;48.72;101311.72;5086414;28;20028;-72
2022/10/20 06:16:34;;;;;;;22.93;12.97;;;;;;;18.77;49.27;101306.69;5092111;28;20110;-72
2022/10/20 06:19:00;;;;;;;26.30;14.03;;;;;;;19.92;46.67;101299.63;5089963;28;20027;-71
2022/10/20 06:21:28;;;;;;;22.20;14.47;;;;;;;20.25;45.83;101302.66;5086424;28;20023;-72
2022/10/20 06:23:53;;;;;;;26.57;15.17;;;;;;;19.78;46.46;101298.41;5087833;28;20392;-72
2022/10/20 06:26:24;;;;;;;21.23;13.93;;;;;;;19.77;47.64;101299.34;5086453;28;20043;-72
2022/10/20 06:28:53;;;;;;;24.33;14.57;;;;;;;19.10;49.02;101303.72;5087277;28;20031;-72
2022/10/20 06:31:24;;;;;;;28.00;14.30;;;;;;;19.12;48.95;101301.91;5089293;28;20019;-72
2022/10/20 06:33:50;;;;;;;24.77;13.43;;;;;;;19.33;48.50;101296.69;5096217;28;20024;-72
2022/10/20 06:36:16;;;;;;;24.07;14.27;;;;;;;19.69;47.39;101304.09;5087053;28;20027;-72
2022/10/20 06:38:42;;;;;;;24.87;14.43;;;;;;;20.09;46.58;101323.69;5090494;28;20031;-71
2022/10/20 06:41:10;;;;;;;29.27;14.30;;;;;;;20.00;46.91;101339.97;5084423;28;20054;-71
2022/10/20 06:43:35;;;;;;;26.60;13.57;;;;;;;19.41;48.12;101329.06;5086758;28;20032;-71
2022/10/20 06:46:04;;;;;;;25.23;13.67;;;;;;;19.37;48.00;101319.50;5085300;28;20333;-72
2022/10/20 06:48:30;;;;;;;21.73;14.33;;;;;;;19.84;47.70;101318.53;5083629;28;20475;-72
2022/10/20 06:50:58;;;;;;;25.87;13.80;;;;;;;20.29;46.06;101309.56;5085322;28;20070;-71
2022/10/20 06:53:24;;;;;;;26.07;14.87;;;;;;;19.68;47.73;101302.34;5084752;28;20051;-72
2022/10/20 06:56:05;;;;;;;29.37;13.70;;;;;;;20.18;46.68;101295.88;5088013;28;20046;-71
2022/10/20 06:58:32;;;;;;;28.93;14.07;;;;;;;20.09;47.02;101290.97;5078545;28;20044;-72
2022/10/20 07:00:59;;;;;;;23.93;13.87;;;;;;;20.54;45.80;101286.38;5090621;28;20024;-72
2022/10/20 07:03:25;;;;;;;21.60;13.67;;;;;;;20.31;46.29;101285.59;5087281;28;20034;-72
2022/10/20 07:05:51;;;;;;;22.90;14.03;;;;;;;20.43;45.83;101285.06;5084950;28;20027;-71
2022/10/20 07:08:16;;;;;;;22.17;13.13;;;;;;;20.23;46.35;101287.72;5086417;28;20020;-72
2022/10/20 07:10:41;;;;;;;25.90;13.40;;;;;;;20.11;47.31;101295.31;5088951;28;20441;-71
2022/10/20 07:13:07;;;;;;;22.20;14.10;;;;;;;20.56;45.85;101289.84;5105113;28;20118;-72
2022/10/20 07:15:32;;;;;;;24.27;13.97;;;;;;;20.33;46.15;101284.63;5090190;28;20024;-72
2022/10/20 07:17:57;;;;;;;21.23;13.80;;;;;;;20.77;45.70;101285.38;5089224;28;20024;-71
2022/10/20 07:20:23;;;;;;;21.30;13.30;;;;;;;21.00;44.61;101290.47;5084392;28;20013;-72
2022/10/20 07:22:48;;;;;;;24.10;13.83;;;;;;;20.45;46.54;101288.50;5090115;28;20035;-71
2022/10/20 07:25:13;;;;;;;23.73;13.90;;;;;;;20.77;45.64;101283.59;5092908;28;20050;-71
2022/10/20 07:27:42;;;;;;;21.40;13.47;;;;;;;20.97;45.03;101289.78;5088031;28;20373;-72
2022/10/20 07:30:07;;;;;;;23.73;13.93;;;;;;;20.84;45.10;101289.47;5089785;28;20024;-72
2022/10/20 07:32:33;;;;;;;25.23;12.87;;;;;;;20.69;46.29;101288.38;5090950;28;20035;-71
2022/10/20 07:34:58;;;;;;;25.57;14.30;;;;;;;20.87;46.01;101288.47;5096786;28;20023;-71
2022/10/20 07:37:23;;;;;;;22.15;13.30;;;;;;;20.50;46.48;101270.59;5088210;28;20042;-72
2022/10/20 07:39:49;;;;;;;24.80;13.77;;;;;;;21.08;45.69;101263.56;5064899;28;20435;-73
2022/10/20 07:42:14;;;;;;;28.43;15.50;;;;;;;21.40;44.99;101255.81;5100565;27;20012;-73
2022/10/20 07:44:40;;;;;;;22.87;13.90;;;;;;;20.85;45.93;101267.28;5094794;28;20170;-73
2022/10/20 07:47:05;;;;;;;24.13;13.53;;;;;;;21.06;45.40;101278.72;5085397;28;20384;-73
2022/10/20 07:49:30;;;;;;;24.25;13.15;;;;;;;21.39;44.68;101275.38;5104473;28;20480;-73
2022/10/20 07:51:56;;;;;;;22.13;13.83;;;;;;;21.22;45.25;101276.19;5080813;28;20016;-73
2022/10/20 07:54:21;;;;;;;22.08;12.68;;;;;;;20.73;46.19;101284.66;5089215;28;20032;-73
2022/10/20 07:56:48;;;;;;;22.63;14.13;;;;;;;21.39;45.44;101283.34;5089117;28;20056;-73
2022/10/20 07:59:13;;;;;;;23.08;14.30;;;;;;;21.12;45.77;101275.75;5090513;28;20028;-73
2022/10/20 08:01:39;;;;;;;20.27;13.68;;;;;;;21.60;44.94;101288.59;5087820;28;20142;-72
2022/10/20 08:04:05;;;;;;;22.90;13.90;;;;;;;20.47;47.32;101280.47;5087636;28;20024;-74
2022/10/20 08:06:30;;;;;;;26.20;14.40;;;;;;;20.20;47.93;101287.88;5088916;28;20031;-72
2022/10/20 08:08:56;;;;;;;24.35;13.73;;;;;;;20.00;49.11;101273.66;5087324;28;20173;-72
2022/10/20 08:11:22;;;;;;;23.80;14.82;;;;;;;20.42;47.91;101272.72;5087931;28;20056;-72
2022/10/20 08:13:47;;;;;;;23.88;13.57;;;;;;;20.35;48.72;101268.63;5089472;28;20028;-72
2022/10/20 08:16:14;;;;;;;19.77;13.27;;;;;;;20.37;48.69;101273.84;5089194;28;20012;-72
2022/10/20 08:18:41;;;;;;;18.98;13.02;;;;;;;20.09;48.59;101269.75;5089224;28;20024;-72
2022/10/20 08:21:13;;;;;;;29.58;14.65;;;;;;;21.09;46.72;101277.69;5089323;28;20011;-73
2022/10/20 08:23:40;;;;;;;24.83;14.68;;;;;;;21.57;45.75;101267.44;5089300;28;20106;-73
2022/10/20 08:26:06;;;;;;;21.40;14.05;;;;;;;21.13;46.49;101264.19;5089395;28;20102;-73
2022/10/20 08:28:32;;;;;;;21.67;13.60;;;;;;;21.40;46.06;101261.13;5088217;28;20067;-73
2022/10/20 08:31:04;;;;;;;27.50;14.50;;;;;;;21.86;45.29;101250.91;5084935;28;20036;-73
2022/10/20 08:33:30;;;;;;;23.27;13.60;;;;;;;21.73;45.43;101257.78;5084778;28;20503;-76
2022/10/20 08:36:01;;;;;;;22.25;14.02;;;;;;;21.65;45.39;101255.50;5093746;28;20031;-73
2022/10/20 08:38:26;;;;;;;25.13;15.27;;;;;;;21.78;45.50;101242.44;5088657;28;20031;-73
2022/10/20 08:40:51;;;;;;;25.92;13.40;;;;;;;21.00;47.31;101252.41;5086159;28;20024;-73
2022/10/20 08:43:18;;;;;;;23.83;13.40;;;;;;;22.01;44.85;101240.41;5080500;28;20423;-72
2022/10/20 08:45:44;;;;;;;24.50;14.70;;;;;;;22.11;45.17;101231.00;5078588;28;20115;-72
2022/10/20 08:48:21;;;;;;;22.55;13.93;;;;;;;21.88;45.67;101239.31;5087581;28;20467;-73
2022/10/20 08:50:49;;;;;;;27.23;14.57;;;;;;;21.78;46.10;101238.94;5089114;28;20039;-72
2022/10/20 08:53:18;;;;;;;24.02;14.40;;;;;;;22.61;44.26;101233.75;5089282;28;20043;-73
2022/10/20 08:55:44;;;;;;;24.00;13.48;;;;;;;22.16;45.44;101234.28;5087967;28;20564;-73
2022/10/20 08:58:16;;;;;;;23.80;13.57;;;;;;;22.58;44.39;101233.91;5087688;28;20032;-73
2022/10/20 09:00:42;;;;;;;21.30;14.00;;;;;;;22.00;45.90;101233.38;5088576;28;20031;-73
2022/10/20 09:03:22;;;;;;;20.23;13.85;;;;;;;21.76;46.86;101230.16;5097940;28;20035;-73
2022/10/20 09:06:01;;;;;;;24.83;13.75;;;;;;;22.05;45.98;101223.34;5104695;28;20080;-73
2022/10/20 09:08:30;;;;;;;22.33;14.23;;;;;;;22.58;44.98;101224.09;5092939;28;20042;-72
2022/10/20 09:10:59;;;;;;;22.83;13.88;;;;;;;21.82;47.12;101214.75;5090541;28;20020;-73
2022/10/20 09:13:29;;;;;;;22.58;14.15;;;;;;;21.95;46.90;101222.09;5086697;28;20032;-72
2022/10/20 09:15:59;;;;;;;21.20;12.93;;;;;;;21.82;46.42;101214.75;5095816;28;20043;-73
2022/10/20 09:18:25;;;;;;;27.60;12.88;;;;;;;22.00;46.22;101212.94;5092486;28;20032;-72
2022/10/20 09:20:52;;;;;;;22.88;15.80;;;;;;;22.24;46.32;101203.72;5090822;28;20410;-72
2022/10/20 09:23:22;;;;;;;19.05;13.45;;;;;;;22.15;46.97;101200.63;5092178;28;20036;-72
2022/10/20 09:25:50;;;;;;;23.25;14.00;;;;;;;22.23;46.65;101186.03;5091650;28;20549;-72
2022/10/20 09:28:27;;;;;;;23.73;14.38;;;;;;;23.02;44.73;101190.59;5092560;28;20073;-72
2022/10/20 09:30:54;;;;;;;21.25;13.73;;;;;;;23.63;43.52;101182.69;5079551;28;20021;-72
2022/10/20 09:33:34;;;;;;;20.45;13.73;;;;;;;23.73;43.55;101191.88;5094744;28;20224;-72
2022/10/20 09:36:11;;;;;;;21.17;14.18;;;;;;;21.81;47.60;101193.53;5089943;28;20041;-72
2022/10/20 09:38:43;;;;;;;22.15;13.02;;;;;;;22.71;45.30;101192.34;5087492;28;20484;-73
2022/10/20 09:41:23;;;;;;;24.92;13.88;;;;;;;21.70;48.76;101204.72;5094048;28;20023;-72
2022/10/20 09:43:53;;;;;;;26.50;16.27;;;;;;;22.33;48.02;101203.25;5091888;28;20046;-72
2022/10/20 09:46:26;;;;;;;21.73;14.40;;;;;;;22.57;46.99;101206.41;5091056;28;20384;-73
2022/10/20 09:48:52;;;;;;;24.92;14.10;;;;;;;23.23;45.61;101199.22;5091516;28;20077;-72
2022/10/20 09:51:22;;;;;;;23.13;13.48;;;;;;;22.99;45.50;101202.31;5089067;28;20031;-73
2022/10/20 09:53:52;;;;;;;20.83;13.68;;;;;;;22.36;46.98;101184.47;5087737;28;20421;-72
2022/10/20 09:56:27;;;;;;;22.85;13.48;;;;;;;22.60;47.06;101184.06;5091352;28;20044;-73
2022/10/20 09:58:54;;;;;;;20.00;14.48;;;;;;;22.84;46.73;101187.19;5087435;28;20479;-73
2022/10/20 10:01:20;;;;;;;22.65;12.93;;;;;;;23.25;45.52;101185.81;5092419;28;20016;-73
2022/10/20 10:03:51;;;;;;;21.83;13.50;;;;;;;23.26;46.25;101179.50;5089350;28;20031;-72
2022/10/20 10:06:27;;;;;;;19.58;13.30;;;;;;;23.69;44.59;101179.66;5093189;28;20016;-72
2022/10/20 10:08:56;;;;;;;20.52;13.15;;;;;;;23.59;45.29;101181.13;5093258;28;20043;-72
2022/10/20 10:11:25;;;;;;;21.83;13.80;;;;;;;22.92;47.23;101178.78;5091289;28;20020;-73
2022/10/20 10:13:52;;;;;;;21.35;13.40;;;;;;;22.89;47.48;101169.13;5091129;28;20364;-71
2022/10/20 10:16:23;;;;;;;22.20;13.63;;;;;;;23.00;47.57;101140.06;5092449;28;20020;-72
2022/10/20 10:18:56;;;;;;;21.00;13.82;;;;;;;23.05;47.50;101123.78;5090001;28;20114;-72
2022/10/20 10:21:22;;;;;;;25.45;15.00;;;;;;;22.26;49.69;101143.28;5093045;28;20027;-71
2022/10/20 10:24:02;;;;;;;20.98;13.98;;;;;;;23.09;48.86;101144.00;5091635;28;20441;-72
2022/10/20 10:26:33;;;;;;;24.73;15.07;;;;;;;22.87;49.30;101153.25;5092837;28;20042;-72
2022/10/20 10:28:58;;;;;;;25.25;14.85;;;;;;;22.87;49.47;101150.56;5090465;28;20361;-71
2022/10/20 10:31:24;;;;;;;21.50;14.55;;;;;;;23.40;48.32;101120.91;5092492;28;20031;-71
2022/10/20 10:33:54;;;;;;;26.83;15.82;;;;;;;23.41;47.98;101127.97;5097120;27;20120;-71
2022/10/20 10:36:29;;;;;;;26.77;15.25;;;;;;;22.64;49.95;101127.88;5089556;28;20123;-71
2022/10/20 10:38:55;;;;;;;26.75;16.30;;;;;;;23.60;47.88;101100.16;5098503;28;20062;-71
2022/10/20 10:41:41;;;;;;;24.40;15.75;;;;;;;24.07;47.22;101091.06;5091436;28;20036;-71
2022/10/20 10:44:45;;;;;;;27.83;16.27;;;;;;;23.29;48.49;101097.53;5088047;28;20039;-72
2022/10/20 10:47:43;;;;;;;23.92;15.82;;;;;;;22.92;49.19;101088.16;5073578;28;20025;-70
2022/10/20 10:50:28;;;;;;;26.27;15.70;;;;;;;23.29;48.92;101102.03;5078739;28;20392;-71
2022/10/20 10:53:11;;;;;;;23.52;15.63;;;;;;;24.11;47.10;101111.28;5082785;28;20027;-71
2022/10/20 10:55:53;;;;;;;24.17;15.48;;;;;;;23.12;49.71;101111.88;5078475;28;20031;-71
2022/10/20 10:58:34;;;;;;;26.15;17.25;;;;;;;23.13;49.96;101100.25;5090700;28;20094;-71
2022/10/20 11:01:12;;;;;;;27.42;17.10;;;;;;;23.29;48.90;101084.19;5082619;28;20052;-72
2022/10/20 11:03:53;;;;;;;28.58;17.02;;;;;;;23.40;49.66;101080.91;5084772;28;20032;-72
2022/10/20 11:06:37;;;;;;;23.13;15.07;;;;;;;24.15;47.71;101079.91;5088208;28;20028;-72
2022/10/20 11:09:13;;;;;;;28.13;17.45;;;;;;;23.50;49.84;101087.38;5088063;28;20032;-72
2022/10/20 11:11:59;;;;;;;34.17;17.70;;;;;;;23.97;48.97;101081.91;5085931;28;20021;-72
2022/10/20 11:14:51;;;;;;;26.83;16.83;;;;;;;23.61;49.98;101080.53;5085571;28;20028;-71
2022/10/20 11:17:51;;;;;;;28.48;17.23;;;;;;;23.79;49.45;101082.06;5072903;28;20036;-72
2022/10/20 11:20:16;;;;;;;28.27;16.58;;;;;;;22.81;52.24;101092.28;5088624;28;20085;-71